Time;durP1;ratioP1;P1;durP2;ratioP2;P2;SDS_P1;SDS_P2;PMS_P1;PMS_P2;Temp;Humidity;BMP_temperature;BMP_pressure;BME280_temperature;BME280_humidity;BME280_pressure;Samples;Min_cycle;Max_cycle;Signal;HPM_P1;HPM_P2
2022/09/29 00:00:11;;;;;;;25.38;22.77;;;;;;;12.42;59.88;99858.91;5035958;28;20044;-75
2022/09/29 00:02:37;;;;;;;21.15;19.55;;;;;;;12.40;59.75;99861.09;5068227;28;20022;-75
2022/09/29 00:05:03;;;;;;;20.80;19.58;;;;;;;12.40;60.01;99864.63;5035985;28;20381;-75
2022/09/29 00:07:31;;;;;;;21.67;20.48;;;;;;;12.38;60.06;99864.09;5068234;28;20112;-76
2022/09/29 00:09:56;;;;;;;24.10;22.33;;;;;;;12.36;59.97;99860.84;5036156;28;20033;-75
2022/09/29 00:12:22;;;;;;;22.75;21.45;;;;;;;12.35;59.86;99870.06;5034695;28;20340;-75
2022/09/29 00:14:47;;;;;;;23.95;22.17;;;;;;;12.33;59.55;99864.91;5034625;28;20385;-75
2022/09/29 00:17:13;;;;;;;23.15;21.85;;;;;;;12.33;59.91;99864.91;5035140;28;20144;-77
2022/09/29 00:19:38;;;;;;;23.17;21.77;;;;;;;12.31;59.78;99858.97;5036260;28;20351;-75
2022/09/29 00:22:04;;;;;;;23.38;21.88;;;;;;;12.30;59.84;99862.75;5067595;28;20041;-76
2022/09/29 00:24:30;;;;;;;21.48;20.25;;;;;;;12.28;59.89;99862.22;5036402;28;20500;-76
2022/09/29 00:26:55;;;;;;;24.20;22.63;;;;;;;12.27;59.83;99870.59;5035176;28;20037;-76
2022/09/29 00:29:21;;;;;;;22.40;20.25;;;;;;;12.26;59.70;99864.38;5035693;28;20057;-75
2022/09/29 00:31:46;;;;;;;22.77;21.38;;;;;;;12.24;59.83;99858.44;5034690;28;20048;-76
2022/09/29 00:34:11;;;;;;;23.20;21.40;;;;;;;12.25;59.87;99861.97;5034420;28;20443;-75
2022/09/29 00:36:37;;;;;;;21.77;19.83;;;;;;;12.22;59.89;99857.91;5034936;28;20052;-75
2022/09/29 00:39:03;;;;;;;23.50;21.77;;;;;;;12.21;59.62;99863.59;5034326;28;20087;-75
2022/09/29 00:41:32;;;;;;;21.02;19.83;;;;;;;12.19;59.93;99861.16;5035677;28;20037;-73
2022/09/29 00:44:25;;;;;;;24.25;22.73;;;;;;;12.18;59.85;99858.75;5035717;28;20039;-75
2022/09/29 00:46:57;;;;;;;21.55;20.17;;;;;;;12.17;59.76;99857.94;5035369;28;20043;-75
2022/09/29 00:49:27;;;;;;;22.23;20.63;;;;;;;12.15;59.82;99856.59;5035386;28;20485;-75
2022/09/29 00:52:18;;;;;;;23.23;21.58;;;;;;;12.15;59.68;99859.28;5035092;28;20432;-74
2022/09/29 00:54:58;;;;;;;22.05;20.65;;;;;;;12.12;59.76;99857.94;5035252;28;20488;-77
2022/09/29 00:57:30;;;;;;;21.88;20.58;;;;;;;12.11;59.89;99856.31;5035521;28;20096;-75
2022/09/29 01:00:07;;;;;;;23.00;21.50;;;;;;;12.09;59.57;99861.19;5034922;28;20033;-75
2022/09/29 01:02:35;;;;;;;21.45;19.83;;;;;;;12.07;59.92;99861.47;5035576;28;20029;-75
2022/09/29 01:05:03;;;;;;;22.88;21.25;;;;;;;12.07;59.79;99864.19;5035884;28;20067;-75
2022/09/29 01:07:29;;;;;;;22.58;21.15;;;;;;;12.05;59.81;99860.94;5034765;28;20037;-75
2022/09/29 01:09:56;;;;;;;24.02;22.52;;;;;;;12.04;59.81;99848.47;5033974;28;20041;-75
2022/09/29 01:12:22;;;;;;;22.17;20.88;;;;;;;12.04;59.77;99853.06;5034991;28;20065;-75
2022/09/29 01:14:48;;;;;;;23.27;21.98;;;;;;;12.02;59.87;99849.81;5034616;28;20038;-74
2022/09/29 01:17:14;;;;;;;21.35;20.08;;;;;;;11.99;60.00;99848.47;5033692;28;20039;-75
2022/09/29 01:19:58;;;;;;;23.02;21.60;;;;;;;11.99;59.88;99853.88;5034133;28;20045;-75
2022/09/29 01:22:33;;;;;;;21.25;20.05;;;;;;;11.97;59.88;99852.53;5033971;28;20067;-76
2022/09/29 01:25:36;;;;;;;23.13;21.33;;;;;;;11.96;59.68;99854.44;5035328;28;20046;-76
2022/09/29 01:28:36;;;;;;;21.73;20.33;;;;;;;11.94;59.74;99853.09;5035251;28;20114;-76
2022/09/29 01:31:29;;;;;;;21.52;20.13;;;;;;;11.91;59.74;99854.44;5035030;28;20108;-76
2022/09/29 01:34:36;;;;;;;21.52;20.15;;;;;;;11.90;59.71;99861.75;5035966;28;20472;-76
2022/09/29 01:37:20;;;;;;;22.58;20.95;;;;;;;11.88;59.84;99860.41;5044914;28;20045;-75
2022/09/29 01:40:05;;;;;;;21.33;20.00;;;;;;;11.86;59.77;99860.69;5081598;28;20039;-76
2022/09/29 01:42:38;;;;;;;22.65;21.30;;;;;;;11.86;59.75;99870.66;5048984;28;20029;-76
2022/09/29 01:45:32;;;;;;;24.80;23.08;;;;;;;11.85;59.78;99866.34;5048262;28;20036;-76
2022/09/29 01:48:04;;;;;;;21.85;20.48;;;;;;;11.83;59.51;99869.31;5048014;28;20095;-76
2022/09/29 01:50:39;;;;;;;21.58;20.25;;;;;;;11.82;59.71;99864.19;5042680;28;20029;-76
2022/09/29 01:53:36;;;;;;;23.25;21.70;;;;;;;11.81;59.71;99862.56;5037016;28;20036;-76
2022/09/29 01:56:08;;;;;;;22.80;21.40;;;;;;;11.80;59.74;99860.94;5032886;28;20041;-76
2022/09/29 01:58:53;;;;;;;23.02;21.02;;;;;;;11.78;59.76;99858.50;5037222;28;20129;-76
2022/09/29 02:01:22;;;;;;;22.63;21.23;;;;;;;11.77;59.70;99864.16;5035526;28;20033;-77
2022/09/29 02:04:02;;;;;;;20.48;18.75;;;;;;;11.76;59.64;99863.38;5035439;28;20033;-75
2022/09/29 02:06:45;;;;;;;20.63;19.23;;;;;;;11.75;59.71;99866.38;5035177;28;20053;-74
2022/09/29 02:09:21;;;;;;;23.38;21.77;;;;;;;11.74;59.62;99865.53;5033890;28;20092;-75
2022/09/29 02:11:51;;;;;;;21.50;19.50;;;;;;;11.73;59.74;99863.91;5035318;28;20029;-74
2022/09/29 02:14:31;;;;;;;22.13;20.60;;;;;;;11.73;59.87;99857.69;5035809;28;20463;-75
2022/09/29 02:17:08;;;;;;;21.83;20.33;;;;;;;11.70;59.66;99862.56;5068248;28;20412;-76
2022/09/29 02:19:36;;;;;;;21.48;20.17;;;;;;;11.69;59.75;99858.25;5037004;28;20122;-75
2022/09/29 02:22:02;;;;;;;22.65;20.98;;;;;;;11.67;59.78;99848.78;5037933;28;20026;-77
2022/09/29 02:24:27;;;;;;;22.77;21.38;;;;;;;11.67;59.64;99860.41;5038062;28;20116;-76
2022/09/29 02:26:53;;;;;;;24.77;20.77;;;;;;;11.66;59.86;99863.38;5035805;28;20033;-76
2022/09/29 02:29:19;;;;;;;22.73;20.85;;;;;;;11.64;59.97;99850.13;5036871;28;20040;-74
2022/09/29 02:31:46;;;;;;;20.85;19.65;;;;;;;11.63;59.59;99853.09;5035962;28;20034;-75
2022/09/29 02:34:15;;;;;;;22.73;20.92;;;;;;;11.62;59.77;99863.13;5035051;28;20072;-76
2022/09/29 02:37:08;;;;;;;20.50;19.25;;;;;;;11.62;59.65;99859.59;5035274;28;20056;-75
2022/09/29 02:39:36;;;;;;;21.60;20.30;;;;;;;11.60;59.67;99861.75;5034519;28;20037;-76
2022/09/29 02:42:07;;;;;;;20.95;19.65;;;;;;;11.58;59.83;99856.63;5033479;28;20099;-76
2022/09/29 02:44:55;;;;;;;22.60;20.80;;;;;;;11.57;59.80;99857.72;5032291;28;20029;-76
2022/09/29 02:47:58;;;;;;;21.02;19.67;;;;;;;11.55;59.69;99859.88;5032512;28;20440;-76
2022/09/29 02:50:33;;;;;;;21.27;19.88;;;;;;;11.53;59.63;99853.91;5033412;28;20099;-75
2022/09/29 02:53:36;;;;;;;21.30;19.42;;;;;;;11.53;59.69;99862.03;5032575;28;20065;-75
2022/09/29 02:56:27;;;;;;;20.98;19.58;;;;;;;11.51;59.51;99849.84;5025366;28;20071;-76
2022/09/29 02:59:07;;;;;;;21.45;20.15;;;;;;;11.49;59.97;99858.25;5033282;28;20026;-75
2022/09/29 03:01:33;;;;;;;22.15;20.75;;;;;;;11.46;59.73;99854.19;5037688;28;20036;-75
2022/09/29 03:03:59;;;;;;;21.73;20.23;;;;;;;11.46;59.37;99859.63;5036943;28;20390;-75
2022/09/29 03:06:26;;;;;;;20.30;19.10;;;;;;;11.45;59.75;99857.97;5036145;28;20029;-76
2022/09/29 03:08:51;;;;;;;21.27;19.98;;;;;;;11.43;59.77;99860.13;5069156;28;20122;-76
2022/09/29 03:11:16;;;;;;;22.85;21.20;;;;;;;11.43;59.58;99865.53;5037672;28;20033;-76
2022/09/29 03:13:42;;;;;;;21.95;20.52;;;;;;;11.42;59.87;99865.81;5035781;28;20039;-76
2022/09/29 03:16:07;;;;;;;22.63;21.05;;;;;;;11.41;59.65;99858.78;5036041;28;20128;-76
2022/09/29 03:18:33;;;;;;;22.20;20.35;;;;;;;11.40;59.48;99862.56;5037201;28;20034;-75
2022/09/29 03:20:58;;;;;;;21.15;19.65;;;;;;;11.39;59.75;99866.34;5036078;28;20071;-75
2022/09/29 03:23:24;;;;;;;20.83;19.42;;;;;;;11.38;59.66;99864.72;5035609;28;20362;-74
2022/09/29 03:25:49;;;;;;;21.58;20.27;;;;;;;11.37;59.61;99866.63;5036941;28;20056;-75
2022/09/29 03:28:15;;;;;;;22.15;20.58;;;;;;;11.35;59.56;99867.97;5035430;28;20060;-75
2022/09/29 03:30:41;;;;;;;21.73;19.83;;;;;;;11.33;59.55;99868.22;5035762;28;20033;-76
2022/09/29 03:33:06;;;;;;;21.00;19.80;;;;;;;11.33;59.45;99875.53;5036795;28;20029;-76
2022/09/29 03:35:32;;;;;;;19.48;18.27;;;;;;;11.32;59.70;99868.53;5036453;28;20037;-75
2022/09/29 03:38:00;;;;;;;23.00;21.45;;;;;;;11.30;59.57;99871.47;5037176;28;20050;-74
2022/09/29 03:40:26;;;;;;;20.33;19.13;;;;;;;11.30;59.42;99873.38;5036456;28;20050;-74
2022/09/29 03:42:52;;;;;;;19.98;18.70;;;;;;;11.27;59.56;99867.41;5036795;28;20100;-75
2022/09/29 03:45:17;;;;;;;22.02;20.60;;;;;;;11.27;59.54;99866.63;5037219;28;20068;-75
2022/09/29 03:47:43;;;;;;;21.42;19.98;;;;;;;11.25;59.68;99866.06;5068688;28;20033;-75
2022/09/29 03:50:08;;;;;;;21.92;20.48;;;;;;;11.25;59.56;99874.97;5035353;28;20026;-76
2022/09/29 03:52:34;;;;;;;22.50;21.08;;;;;;;11.23;59.54;99857.41;5036722;28;20037;-75
2022/09/29 03:54:59;;;;;;;19.63;18.42;;;;;;;11.23;59.48;99862.81;5036223;28;20080;-75
2022/09/29 03:57:25;;;;;;;21.08;19.52;;;;;;;11.21;59.54;99870.38;5034982;28;20042;-75
2022/09/29 03:59:52;;;;;;;20.63;19.42;;;;;;;11.20;59.58;99866.88;5036321;28;20033;-75
2022/09/29 04:02:18;;;;;;;20.60;19.27;;;;;;;11.19;59.48;99869.84;5051552;28;20091;-75
2022/09/29 04:04:44;;;;;;;19.98;18.77;;;;;;;11.17;59.34;99875.53;5034793;28;20039;-75
2022/09/29 04:07:10;;;;;;;20.75;19.55;;;;;;;11.17;59.55;99878.22;5036040;28;20030;-75
2022/09/29 04:09:37;;;;;;;21.48;20.08;;;;;;;11.16;59.45;99870.38;5036005;28;20466;-75
2022/09/29 04:12:02;;;;;;;20.90;19.50;;;;;;;11.14;59.33;99872.56;5034790;28;20065;-75
2022/09/29 04:14:27;;;;;;;21.27;19.70;;;;;;;11.13;59.43;99881.72;5035249;28;20069;-75
2022/09/29 04:16:53;;;;;;;20.35;19.05;;;;;;;11.12;59.39;99877.41;5036180;28;20458;-76
2022/09/29 04:19:18;;;;;;;21.75;19.95;;;;;;;11.12;59.44;99885.50;5035069;28;20034;-75
2022/09/29 04:21:44;;;;;;;20.63;19.42;;;;;;;11.11;59.14;99886.56;5035768;28;20446;-75
2022/09/29 04:24:10;;;;;;;20.85;19.55;;;;;;;11.09;59.30;99884.16;5035730;28;20042;-75
2022/09/29 04:26:35;;;;;;;21.83;20.45;;;;;;;11.07;59.20;99883.59;5035642;28;20036;-75
2022/09/29 04:29:01;;;;;;;20.73;19.52;;;;;;;11.08;59.30;99895.22;5035528;28;20136;-75
2022/09/29 04:31:26;;;;;;;21.20;19.63;;;;;;;11.06;59.33;99892.78;5034465;28;20067;-76
2022/09/29 04:33:51;;;;;;;21.40;20.08;;;;;;;11.04;59.33;99895.75;5034708;28;20071;-75
2022/09/29 04:36:17;;;;;;;21.90;20.23;;;;;;;11.03;59.14;99888.72;5035420;28;20057;-75
2022/09/29 04:38:42;;;;;;;21.88;20.48;;;;;;;11.01;59.25;99890.06;5034535;28;20037;-75
2022/09/29 04:41:08;;;;;;;20.52;19.23;;;;;;;11.01;59.31;99892.75;5035777;28;20036;-75
2022/09/29 04:43:33;;;;;;;20.83;19.52;;;;;;;11.00;59.34;99899.25;5034220;28;20485;-75
2022/09/29 04:46:04;;;;;;;18.98;17.73;;;;;;;10.98;59.30;99896.00;5067480;28;20497;-75
2022/09/29 04:48:29;;;;;;;24.02;22.25;;;;;;;10.97;59.39;99899.81;5035241;28;20033;-75
2022/09/29 04:50:54;;;;;;;19.65;18.30;;;;;;;10.96;59.39;99903.56;5035265;28;20334;-75
2022/09/29 04:53:20;;;;;;;20.25;18.95;;;;;;;10.94;59.25;99898.44;5034154;28;20170;-75
2022/09/29 04:55:45;;;;;;;20.50;19.00;;;;;;;10.94;59.17;99908.44;5035539;28;20026;-75
2022/09/29 04:58:10;;;;;;;21.13;19.70;;;;;;;10.93;59.29;99901.41;5035586;28;20037;-75
2022/09/29 05:00:36;;;;;;;20.80;19.30;;;;;;;10.91;59.32;99903.53;5033870;28;20034;-75
2022/09/29 05:03:02;;;;;;;20.58;19.27;;;;;;;10.89;59.42;99903.03;5033872;28;20052;-75
2022/09/29 05:05:27;;;;;;;21.88;20.55;;;;;;;10.89;59.35;99908.44;5035640;28;20083;-75
2022/09/29 05:07:53;;;;;;;22.08;20.45;;;;;;;10.89;59.29;99908.44;5035447;28;20034;-75
2022/09/29 05:10:18;;;;;;;20.88;19.63;;;;;;;10.88;59.27;99912.19;5050909;28;20389;-75
2022/09/29 05:12:50;;;;;;;21.20;19.80;;;;;;;10.86;59.47;99908.94;5035214;28;20512;-75
2022/09/29 05:15:17;;;;;;;20.88;19.48;;;;;;;10.84;59.23;99917.31;5035516;28;20091;-74
2022/09/29 05:17:43;;;;;;;20.05;18.75;;;;;;;10.84;59.25;99917.31;5034513;28;20034;-73
2022/09/29 05:20:09;;;;;;;21.00;19.65;;;;;;;10.81;59.27;99921.38;5034489;28;20105;-73
2022/09/29 05:22:34;;;;;;;20.58;19.17;;;;;;;10.80;59.27;99924.31;5033895;28;20037;-73
2022/09/29 05:24:59;;;;;;;23.48;21.52;;;;;;;10.80;59.22;99924.31;5034536;28;20141;-73
2022/09/29 05:27:25;;;;;;;21.45;19.63;;;;;;;10.78;59.22;99935.38;5033695;28;20428;-75
2022/09/29 05:29:51;;;;;;;21.65;20.35;;;;;;;10.77;59.14;99922.97;5033783;28;20041;-75
2022/09/29 05:32:16;;;;;;;21.60;20.30;;;;;;;10.75;59.22;99930.50;5066935;28;20454;-75
2022/09/29 05:34:41;;;;;;;21.90;19.85;;;;;;;10.75;59.36;99935.09;5034192;28;20056;-75
2022/09/29 05:37:07;;;;;;;22.15;20.85;;;;;;;10.73;59.09;99940.75;5033145;28;20409;-75
2022/09/29 05:39:33;;;;;;;22.10;20.70;;;;;;;10.72;59.16;99939.16;5034030;28;20045;-74
2022/09/29 05:42:01;;;;;;;22.90;21.42;;;;;;;10.72;59.12;99939.16;5034639;28;20048;-75
2022/09/29 05:44:26;;;;;;;20.55;19.17;;;;;;;10.70;58.95;99944.00;5034164;28;20033;-76
2022/09/29 05:46:52;;;;;;;21.30;19.98;;;;;;;10.69;59.12;99938.88;5033685;28;20457;-75
2022/09/29 05:49:18;;;;;;;20.45;19.25;;;;;;;10.67;59.09;99947.22;5034042;28;20044;-75
2022/09/29 05:51:43;;;;;;;21.60;19.80;;;;;;;10.66;59.26;99950.16;5033456;28;20083;-75
2022/09/29 05:54:09;;;;;;;19.25;18.13;;;;;;;10.65;59.36;99943.16;5034068;28;20080;-75
2022/09/29 05:56:34;;;;;;;20.13;18.73;;;;;;;10.63;59.29;99946.09;5049327;28;20061;-75
2022/09/29 05:59:00;;;;;;;19.98;18.75;;;;;;;10.62;59.45;99955.31;5033652;28;20046;-73
2022/09/29 06:01:26;;;;;;;21.10;19.70;;;;;;;10.60;59.06;99952.03;5032634;28;20124;-75
2022/09/29 06:03:55;;;;;;;19.80;18.63;;;;;;;10.59;59.16;99956.63;5033501;28;20026;-74
2022/09/29 06:06:24;;;;;;;20.50;19.10;;;;;;;10.57;59.32;99966.88;5034364;28;20029;-75
2022/09/29 06:08:50;;;;;;;20.05;18.55;;;;;;;10.57;59.05;99960.69;5033767;28;20061;-75
2022/09/29 06:11:24;;;;;;;20.13;18.85;;;;;;;10.56;59.16;99959.06;5032808;28;20038;-74
2022/09/29 06:13:52;;;;;;;22.80;21.35;;;;;;;10.55;59.27;99962.81;5034015;28;20442;-75
2022/09/29 06:16:19;;;;;;;19.95;18.73;;;;;;;10.55;59.13;99968.22;5065683;28;20033;-75
2022/09/29 06:18:46;;;;;;;20.30;18.90;;;;;;;10.53;59.14;99970.34;5033609;28;20097;-75
2022/09/29 06:21:15;;;;;;;20.83;19.33;;;;;;;10.52;59.09;99963.34;5033491;28;20106;-75
2022/09/29 06:23:41;;;;;;;;;;;;;;;10.52;59.30;99968.75;5032535;28;20072;-74
2022/09/29 06:26:09;;;;;;;19.70;18.50;;;;;;;10.49;58.88;99967.38;5034184;28;19955;-75
2022/09/29 06:28:35;;;;;;;20.38;18.95;;;;;;;10.47;58.91;99968.72;5033262;28;20111;-75
2022/09/29 06:31:06;;;;;;;20.83;19.50;;;;;;;10.47;58.96;99972.22;5033134;28;20060;-75
2022/09/29 06:33:33;;;;;;;21.20;19.83;;;;;;;10.45;58.94;99974.38;5033751;28;20096;-75
2022/09/29 06:38:47;;;;;;;18.95;17.65;;;;;;;10.43;59.07;99981.09;5033016;28;20195;-75
2022/09/29 06:41:13;;;;;;;20.83;19.17;;;;;;;10.43;59.08;99986.50;5033028;28;20513;-75
2022/09/29 06:43:38;;;;;;;21.83;20.23;;;;;;;10.41;59.30;99984.06;5033501;28;20401;-75
2022/09/29 06:46:04;;;;;;;20.27;18.75;;;;;;;10.40;59.31;99994.03;5032923;28;20366;-75
2022/09/29 06:48:29;;;;;;;20.45;18.95;;;;;;;10.40;59.35;99988.63;5031979;28;20044;-75
2022/09/29 06:50:55;;;;;;;19.67;18.48;;;;;;;10.39;59.20;99994.31;5032968;28;20462;-77
2022/09/29 06:53:21;;;;;;;20.27;18.90;;;;;;;10.39;59.32;100003.22;5031721;28;20091;-75
2022/09/29 06:55:55;;;;;;;21.10;19.60;;;;;;;10.39;59.43;99997.03;5032597;28;20025;-75
2022/09/29 06:58:21;;;;;;;20.17;18.60;;;;;;;10.38;59.35;100006.16;5032770;28;20191;-76
2022/09/29 07:00:46;;;;;;;21.38;19.77;;;;;;;10.37;59.24;99996.47;5032627;28;20033;-75
2022/09/29 07:03:12;;;;;;;20.15;18.77;;;;;;;10.37;59.38;100002.66;5032827;28;20056;-75
2022/09/29 07:05:37;;;;;;;26.00;23.77;;;;;;;10.36;59.43;99997.53;5032433;28;20116;-76
2022/09/29 07:08:03;;;;;;;19.58;18.27;;;;;;;10.36;59.24;100005.66;5031426;28;20126;-76
2022/09/29 07:10:28;;;;;;;22.00;20.40;;;;;;;10.34;59.15;100008.59;5031531;28;20037;-75
2022/09/29 07:12:54;;;;;;;20.27;18.92;;;;;;;10.33;59.00;100009.69;5031649;28;20116;-77
2022/09/29 07:15:20;;;;;;;21.75;20.00;;;;;;;10.33;59.18;100014.22;5033902;28;20473;-75
2022/09/29 07:17:45;;;;;;;22.65;21.05;;;;;;;10.33;59.52;100011.53;5033417;28;20033;-75
2022/09/29 07:20:10;;;;;;;19.83;18.23;;;;;;;10.31;59.41;100011.81;5033736;28;20120;-78
2022/09/29 07:22:36;;;;;;;22.65;20.50;;;;;;;10.31;59.27;100011.81;5031748;28;20030;-75
2022/09/29 07:25:01;;;;;;;20.00;18.67;;;;;;;10.32;59.29;100026.94;5032948;28;20490;-76
2022/09/29 07:27:33;;;;;;;22.45;20.90;;;;;;;10.31;59.36;100022.59;5032425;28;20375;-76
2022/09/29 07:29:58;;;;;;;20.80;19.17;;;;;;;10.31;59.38;100032.59;5033345;28;20067;-76
2022/09/29 07:32:25;;;;;;;22.90;21.17;;;;;;;10.31;59.32;100030.72;5032867;28;20056;-76
2022/09/29 07:34:51;;;;;;;23.48;21.17;;;;;;;10.32;59.47;100020.72;5032570;28;20488;-75
2022/09/29 07:37:16;;;;;;;21.98;20.20;;;;;;;10.31;59.64;100028.00;5031193;28;20050;-76
2022/09/29 07:39:41;;;;;;;22.98;21.17;;;;;;;10.30;59.41;100029.06;5032650;28;20041;-75
2022/09/29 07:42:07;;;;;;;20.88;19.55;;;;;;;10.30;59.29;100023.66;5031224;28;20187;-76
2022/09/29 07:44:32;;;;;;;22.77;20.70;;;;;;;10.31;59.24;100027.19;5032324;28;20064;-77
2022/09/29 07:46:57;;;;;;;21.40;19.48;;;;;;;10.31;59.45;100022.59;5034875;28;20029;-75
2022/09/29 07:49:23;;;;;;;22.45;20.65;;;;;;;10.31;59.42;100030.72;5035840;28;20454;-76
2022/09/29 07:51:48;;;;;;;24.58;22.40;;;;;;;10.31;59.36;100035.31;5035866;28;20034;-75
2022/09/29 07:54:14;;;;;;;21.52;19.88;;;;;;;10.31;59.50;100030.72;5034018;28;20079;-75
2022/09/29 07:56:39;;;;;;;23.52;21.67;;;;;;;10.31;59.56;100030.72;5035538;28;20040;-75
2022/09/29 07:59:05;;;;;;;21.48;19.92;;;;;;;10.32;59.71;100042.31;5035236;28;20098;-75
2022/09/29 08:01:30;;;;;;;22.80;21.08;;;;;;;10.31;59.69;100044.22;5035499;28;20057;-75
2022/09/29 08:03:56;;;;;;;23.30;20.95;;;;;;;10.31;59.46;100051.50;5036160;28;20080;-75
2022/09/29 08:06:23;;;;;;;22.42;20.70;;;;;;;10.31;59.62;100049.59;5034247;28;20025;-76
2022/09/29 08:08:49;;;;;;;22.17;20.48;;;;;;;10.30;59.31;100058.75;5068106;28;20033;-75
2022/09/29 08:11:19;;;;;;;21.88;19.80;;;;;;;10.31;59.59;100062.28;5050557;28;20116;-75
2022/09/29 08:13:44;;;;;;;21.70;20.05;;;;;;;10.31;59.64;100060.41;5035398;28;20029;-75
2022/09/29 08:16:13;;;;;;;23.25;21.45;;;;;;;10.31;59.43;100070.38;5035400;28;20075;-76
2022/09/29 08:18:39;;;;;;;23.08;21.15;;;;;;;10.31;59.87;100073.91;5035292;28;20040;-81
2022/09/29 08:21:05;;;;;;;21.80;20.27;;;;;;;10.31;59.80;100070.38;5035319;28;20039;-75
2022/09/29 08:23:35;;;;;;;23.02;21.15;;;;;;;10.31;59.70;100073.91;5035313;28;20492;-76
2022/09/29 08:26:21;;;;;;;20.70;19.17;;;;;;;10.31;59.69;100076.59;5035583;28;20041;-78
2022/09/29 08:28:47;;;;;;;22.48;20.73;;;;;;;10.30;59.90;100080.34;5035175;28;20466;-75
2022/09/29 08:31:19;;;;;;;21.30;19.80;;;;;;;10.31;60.05;100076.59;5034051;28;20032;-76
2022/09/29 08:33:45;;;;;;;24.38;22.02;;;;;;;10.31;60.02;100081.19;5036056;28;20120;-76
2022/09/29 08:36:14;;;;;;;23.42;21.60;;;;;;;10.31;59.97;100082.00;5035007;28;20072;-76
2022/09/29 08:38:47;;;;;;;20.48;19.08;;;;;;;10.30;60.36;100091.16;5034292;28;20141;-77
2022/09/29 08:41:32;;;;;;;24.23;22.23;;;;;;;10.31;60.32;100086.59;5035161;28;20109;-77
2022/09/29 08:44:01;;;;;;;20.98;19.25;;;;;;;10.31;60.21;100092.00;5035113;28;20025;-78
2022/09/29 08:46:32;;;;;;;24.10;21.75;;;;;;;10.29;60.49;100092.22;5033675;28;20041;-79
2022/09/29 08:49:02;;;;;;;25.15;23.15;;;;;;;10.30;60.64;100098.44;5034356;28;20370;-77
2022/09/29 08:51:33;;;;;;;23.25;21.15;;;;;;;10.30;60.52;100099.25;5035068;28;20033;-78
2022/09/29 08:54:17;;;;;;;23.63;21.73;;;;;;;10.30;60.84;100095.75;5035003;28;20034;-79
2022/09/29 08:56:42;;;;;;;23.33;21.05;;;;;;;10.30;60.43;100099.25;5034718;28;20041;-80
2022/09/29 08:59:10;;;;;;;26.90;24.60;;;;;;;10.31;61.08;100098.19;5033374;28;20492;-79
2022/09/29 09:01:44;;;;;;;25.80;23.30;;;;;;;10.31;61.18;100098.19;5035753;28;20484;-80
2022/09/29 09:04:28;;;;;;;25.42;22.58;;;;;;;10.32;61.46;100107.91;5035648;28;20127;-79
2022/09/29 09:07:28;;;;;;;24.23;22.27;;;;;;;10.32;61.67;100102.50;5066941;28;20047;-79
2022/09/29 09:10:18;;;;;;;26.13;23.65;;;;;;;10.32;61.66;100101.69;5034511;28;20069;-79
2022/09/29 09:12:52;;;;;;;24.13;22.33;;;;;;;10.32;61.72;100105.22;5034689;28;20473;-77
2022/09/29 09:15:33;;;;;;;25.92;23.58;;;;;;;10.33;62.24;100106.00;5033976;28;20033;-78
2022/09/29 09:18:25;;;;;;;26.38;23.92;;;;;;;10.34;62.62;100105.78;5032975;28;20038;-77
2022/09/29 09:21:09;;;;;;;26.77;23.73;;;;;;;10.33;62.42;100108.72;5034477;28;20025;-78
2022/09/29 09:23:44;;;;;;;26.70;24.20;;;;;;;10.34;62.37;100108.47;5067117;28;20124;-80
2022/09/29 09:26:11;;;;;;;24.45;22.20;;;;;;;10.35;62.33;100120.06;5033320;28;20469;-79
2022/09/29 09:28:47;;;;;;;25.77;23.48;;;;;;;10.35;62.83;100120.88;5032827;28;20029;-79
2022/09/29 09:31:21;;;;;;;24.67;22.48;;;;;;;10.35;63.12;100112.78;5033932;28;20312;-78
2022/09/29 09:33:58;;;;;;;28.20;25.35;;;;;;;10.37;63.71;100107.94;5034292;28;20033;-76
2022/09/29 09:36:37;;;;;;;24.23;21.83;;;;;;;10.37;63.56;100110.66;5034099;28;20512;-77
2022/09/29 09:39:14;;;;;;;27.75;25.20;;;;;;;10.39;64.18;100121.22;5034070;28;20080;-77
2022/09/29 09:41:41;;;;;;;27.02;24.85;;;;;;;10.40;63.97;100118.22;5033951;28;20041;-77
2022/09/29 09:44:18;;;;;;;24.35;22.00;;;;;;;10.41;64.32;100119.06;5034365;28;20087;-77
2022/09/29 09:46:54;;;;;;;26.92;24.52;;;;;;;10.41;64.53;100119.06;5033924;28;20466;-77
2022/09/29 09:49:19;;;;;;;24.88;22.88;;;;;;;10.42;64.44;100127.97;5033654;28;20056;-76
2022/09/29 09:51:57;;;;;;;27.33;24.77;;;;;;;10.42;65.15;100120.69;5034198;28;20029;-78
2022/09/29 09:54:33;;;;;;;24.52;22.48;;;;;;;10.42;65.26;100126.09;5034454;28;20033;-79
2022/09/29 09:57:08;;;;;;;25.75;23.17;;;;;;;10.44;65.57;100125.84;5034175;28;20026;-78
2022/09/29 09:59:51;;;;;;;26.30;24.05;;;;;;;10.44;65.96;100131.25;5033531;28;20034;-79
2022/09/29 10:02:19;;;;;;;26.85;24.55;;;;;;;10.44;65.75;100129.34;5032669;28;20072;-78
2022/09/29 10:04:49;;;;;;;26.98;24.15;;;;;;;10.46;66.53;100135.31;5034101;28;20029;-78
2022/09/29 10:07:16;;;;;;;26.98;24.60;;;;;;;10.47;66.27;100131.53;5034112;28;20052;-77
2022/09/29 10:09:42;;;;;;;23.33;21.45;;;;;;;10.49;65.88;100136.69;5032703;28;20423;-77
2022/09/29 10:12:16;;;;;;;25.98;23.77;;;;;;;10.52;65.89;100128.88;5033423;28;20036;-82
2022/09/29 10:14:50;;;;;;;24.80;21.88;;;;;;;10.55;65.81;100136.47;5033417;28;20052;-77
2022/09/29 10:17:17;;;;;;;25.35;22.73;;;;;;;10.58;65.96;100140.53;5034232;28;20033;-80
2022/09/29 10:19:54;;;;;;;26.67;24.33;;;;;;;10.61;66.19;100135.44;5033562;28;20074;-79
2022/09/29 10:22:20;;;;;;;25.33;23.23;;;;;;;10.63;66.30;100140.56;5033206;28;20067;-78
2022/09/29 10:24:46;;;;;;;23.42;21.45;;;;;;;10.66;66.15;100141.94;5033916;28;20056;-75
2022/09/29 10:27:19;;;;;;;26.10;23.90;;;;;;;10.69;66.53;100139.56;5031745;28;20466;-79
2022/09/29 10:29:51;;;;;;;24.23;22.15;;;;;;;10.71;66.37;100139.28;5032744;28;20482;-79
2022/09/29 10:32:35;;;;;;;25.63;23.27;;;;;;;10.74;66.42;100145.00;5033138;28;20021;-78
2022/09/29 10:35:26;;;;;;;25.52;23.30;;;;;;;10.78;66.65;100147.97;5033884;28;20025;-77
2022/09/29 10:38:04;;;;;;;24.30;22.27;;;;;;;10.80;66.66;100146.66;5033177;28;20092;-77
2022/09/29 10:40:30;;;;;;;23.80;21.48;;;;;;;10.83;66.69;100148.84;5032594;28;20067;-77
2022/09/29 10:42:56;;;;;;;25.83;23.77;;;;;;;10.86;66.72;100143.97;5032838;28;20033;-78
2022/09/29 10:45:26;;;;;;;25.45;22.98;;;;;;;10.87;66.93;100151.84;5032519;28;20075;-78
2022/09/29 10:47:57;;;;;;;22.50;20.60;;;;;;;10.90;67.25;100145.09;5065252;28;20105;-76
2022/09/29 10:50:27;;;;;;;23.10;21.27;;;;;;;10.91;67.06;100142.16;5033061;28;20029;-76
2022/09/29 10:52:54;;;;;;;24.83;22.80;;;;;;;10.94;66.93;100144.34;5032819;28;20029;-76
2022/09/29 10:55:25;;;;;;;23.13;21.42;;;;;;;10.98;66.88;100141.91;5032687;28;20030;-77
2022/09/29 10:57:53;;;;;;;23.42;21.13;;;;;;;11.00;66.94;100143.28;5032554;28;20038;-77
2022/09/29 11:00:38;;;;;;;21.60;20.20;;;;;;;11.03;66.91;100147.34;5032572;28;20036;-77
2022/09/29 11:03:21;;;;;;;24.08;22.15;;;;;;;11.05;66.91;100148.72;5031637;28;20041;-77
2022/09/29 11:05:53;;;;;;;22.63;20.92;;;;;;;11.08;66.92;100143.88;5032892;28;20079;-77
2022/09/29 11:08:24;;;;;;;24.88;23.17;;;;;;;11.11;66.64;100151.44;5032502;28;20057;-77
2022/09/29 11:11:10;;;;;;;20.80;19.40;;;;;;;11.13;66.72;100150.13;5033353;28;20053;-77
2022/09/29 11:13:39;;;;;;;24.30;22.42;;;;;;;11.16;66.71;100149.63;5032539;28;20084;-77
2022/09/29 11:16:17;;;;;;;24.35;22.55;;;;;;;11.19;67.25;100157.19;5032739;28;20480;-77
2022/09/29 11:18:50;;;;;;;26.95;24.65;;;;;;;11.23;67.19;100160.19;5064727;28;20116;-77
2022/09/29 11:21:18;;;;;;;22.23;20.65;;;;;;;11.25;67.00;100161.56;5036262;28;20117;-77
2022/09/29 11:23:54;;;;;;;26.40;23.98;;;;;;;11.27;66.68;100156.69;5036945;28;20048;-77
2022/09/29 11:26:46;;;;;;;26.88;24.45;;;;;;;11.31;67.08;100156.16;5037817;28;20055;-77
2022/09/29 11:29:27;;;;;;;31.05;28.67;;;;;;;11.34;67.05;100158.34;5038423;28;20112;-78
2022/09/29 11:32:25;;;;;;;28.38;25.30;;;;;;;11.37;67.38;100164.06;5069494;28;20413;-77